MDT,Max TemperatureF,Mean TemperatureF,Min TemperatureF,Max Dew PointF,MeanDew PointF,Min DewpointF,Max Humidity, Mean Humidity, Min Humidity, Max Sea Level PressureIn, Mean Sea Level PressureIn, Min Sea Level PressureIn, Max VisibilityMiles, Mean VisibilityMiles, Min VisibilityMiles, Max Wind SpeedMPH, Mean Wind SpeedMPH, Max Gust SpeedMPH,PrecipitationIn, CloudCover, Events, WindDirDegrees
2010-10-1,83,68,52,50,45,42,71,49,26,30.19,30.10,30.03,10,10,9,23,9,28,0.00,0,,148
2010-10-2,84,64,43,46,43,40,93,58,22,30.18,30.06,29.94,10,10,10,13,1,17,0.00,0,,327
2010-10-3,82,63,44,48,42,38,83,54,25,29.96,29.88,29.77,10,10,10,18,6,25,T,0,,319
2010-10-4,63,59,54,56,53,50,93,88,83,30.03,29.90,29.80,10,9,2,16,7,21,0.24,7,Rain,311
2010-10-5,67,57,47,50,46,43,86,66,45,30.38,30.24,30.04,10,10,10,15,7,18,0.01,4,Rain,338
2010-10-6,68,53,38,50,43,37,100,78,56,30.38,30.26,30.04,10,7,0,9,2,12,0.00,1,Fog,325
2010-10-7,67,57,46,52,48,46,100,79,58,30.05,30.00,29.93,10,10,3,24,3,30,0.58,5,Rain-Thunderstorm,303
2010-10-8,56,51,46,50,47,45,100,86,72,30.27,30.14,30.05,10,8,1,8,1,10,0.04,7,Rain,34
2010-10-9,64,53,41,48,45,41,100,78,56,30.36,30.31,30.25,10,8,0,9,1,9,0.00,4,Fog,338
2010-10-10,69,60,51,54,49,46,89,73,56,30.29,30.16,30.02,10,10,10,30,2,40,0.04,7,Rain,3
2010-10-11,54,44,34,51,37,28,93,67,41,30.49,30.28,30.08,10,10,9,23,8,30,0.06,5,Rain,290
2010-10-12,56,42,28,33,29,27,92,62,32,30.61,30.53,30.47,10,10,10,6,1,8,0.00,0,,59
2010-10-13,59,44,29,37,32,27,96,68,39,30.54,30.44,30.32,10,10,10,6,0,8,0.00,0,,290
2010-10-14,66,48,29,40,34,27,89,62,34,30.36,30.23,30.06,10,10,10,6,1,7,0.00,0,,316
2010-10-15,58,46,34,39,31,22,92,61,30,30.30,30.16,30.05,10,10,9,29,6,36,0.00,2,,287
2010-10-16,55,41,27,33,28,24,85,63,41,30.27,30.19,30.06,10,10,10,13,3,15,0.00,1,,322
2010-10-17,59,45,30,34,27,20,92,58,23,30.27,30.21,30.14,10,10,10,18,3,23,0.00,0,,348
2010-10-18,58,42,25,30,26,22,92,64,35,30.38,30.29,30.21,10,10,10,8,1,14,0.00,0,,290
2010-10-19,61,45,28,34,29,24,85,59,32,30.36,30.26,30.18,10,10,10,7,1,8,0.00,0,,35
2010-10-20,61,44,27,36,32,26,92,64,36,30.27,30.16,30.04,10,10,10,3,1,5,0.00,0,,18
2010-10-21,64,47,29,37,32,28,92,64,36,30.09,30.00,29.87,10,10,10,6,0,22,0.00,0,,110
2010-10-22,61,46,31,38,34,30,92,67,42,30.00,29.92,29.85,10,10,7,10,1,14,0.00,1,,285
2010-10-23,52,45,37,46,40,36,100,83,66,29.88,29.85,29.80,10,10,8,13,2,16,0.06,7,Rain,234
2010-10-24,51,45,39,43,39,32,100,80,59,29.81,29.53,29.39,10,10,8,18,8,23,0.03,6,Rain,179
2010-10-25,45,42,39,34,33,31,79,69,58,29.77,29.66,29.47,10,10,10,16,4,18,T,8,Rain,225
2010-10-26,43,40,36,33,30,26,92,75,57,30.08,29.88,29.75,10,10,10,15,5,20,T,8,Rain,327
2010-10-27,48,39,30,34,31,26,100,77,53,30.35,30.26,30.10,10,10,10,9,1,10,0.00,6,,335
2010-10-28,48,37,26,32,29,25,100,75,50,30.33,30.24,30.13,10,10,10,9,1,17,0.00,3,,291
2010-10-29,46,38,30,40,34,28,93,82,71,30.14,30.11,30.04,10,10,10,10,2,12,T,6,Rain,335
2010-10-30,48,42,36,38,37,36,100,83,65,30.11,30.01,29.91,10,10,5,8,2,9,T,7,Rain,187
2010-10-31,54,44,34,41,37,32,100,80,59,30.34,30.10,29.94,10,10,7,15,2,20,0.02,6,Rain,332